X  Fermer Données météorologiques d'aviation de Metar     EHWO Woensdrecht Air Base
Température
16°C Température
15°C Point de rosée
94% Humidité



Vent
13 KM/H
8 MPH
4 M/S
7 KTS



360°
N
Conditions actuelles

Partiellement nuageux Partiellement nuageux
Pression 1011.85 (hPa) - 29.88 (inHg)
Visibilité 6 (mile) - 9.7 (km)
Aéroport
Code de l'aéroport EHWO

Emplacement: Woensdrecht Air Base
Distance: 32 (km)

Metar:
EHWO 200828Z AUTO 36007KT 300V060 9999 FEW009 SCT011 FEW015CB BKN068 16/15 Q1012 GRN

Temps: 20-05-2024 10:28 CEST